Time;durP1;ratioP1;P1;durP2;ratioP2;P2;SDS_P1;SDS_P2;PMS_P1;PMS_P2;Temp;Humidity;BMP_temperature;BMP_pressure;BME280_temperature;BME280_humidity;BME280_pressure;Samples;Min_cycle;Max_cycle;Signal;HPM_P1;HPM_P2
2023/08/09 00:00:32;;;;;;;2.50;2.10;;;18.00;99.90;;;;;;4975562;28;20896;-77
2023/08/09 00:03:06;;;;;;;3.50;2.60;;;18.00;99.90;;;;;;4976555;28;20532;-78
2023/08/09 00:05:52;;;;;;;3.90;2.50;;;18.10;99.90;;;;;;4975222;28;20473;-78
2023/08/09 00:08:29;;;;;;;2.40;2.30;;;18.10;99.90;;;;;;4975171;28;20449;-77
2023/08/09 00:11:08;;;;;;;2.53;2.33;;;18.00;99.90;;;;;;4978482;28;20463;-76
2023/08/09 00:14:15;;;;;;;2.63;2.47;;;18.00;99.90;;;;;;4978838;28;20956;-77
2023/08/09 00:17:09;;;;;;;2.40;2.00;;;18.10;99.90;;;;;;4966620;28;20473;-77
2023/08/09 00:20:14;;;;;;;2.53;2.20;;;18.00;99.90;;;;;;4982166;28;20475;-77
2023/08/09 00:23:14;;;;;;;2.77;2.30;;;18.00;99.90;;;;;;4976289;28;20476;-77
2023/08/09 00:33:04;;;;;;;3.17;2.87;;;18.00;99.90;;;;;;4954358;28;20452;-77
2023/08/09 00:35:50;;;;;;;2.10;2.00;;;18.00;99.90;;;;;;4967174;28;20473;-76
2023/08/09 00:38:36;;;;;;;2.10;2.00;;;18.00;99.90;;;;;;4978310;28;20512;-77
2023/08/09 00:41:26;;;;;;;3.50;2.97;;;17.90;99.90;;;;;;4978232;28;20458;-76
2023/08/09 00:44:20;;;;;;;4.70;3.00;;;17.80;99.90;;;;;;4978335;28;21028;-77
2023/08/09 00:50:05;;;;;;;2.33;2.23;;;17.80;99.90;;;;;;4978508;28;20936;-77
2023/08/09 00:52:46;;;;;;;4.00;2.70;;;17.80;99.90;;;;;;4979531;28;20457;-77
2023/08/09 00:55:48;;;;;;;2.20;2.10;;;17.80;99.90;;;;;;4979873;28;20481;-77
2023/08/09 00:58:24;;;;;;;2.60;2.40;;;17.80;99.90;;;;;;4980527;28;20919;-77
2023/08/09 01:01:26;;;;;;;3.20;3.00;;;17.80;99.90;;;;;;4980512;28;20461;-77
2023/08/09 01:04:15;;;;;;;2.30;2.20;;;17.70;99.90;;;;;;4980210;28;20433;-77
2023/08/09 01:06:57;;;;;;;2.40;2.20;;;17.70;99.90;;;;;;4979818;28;20468;-77
2023/08/09 01:09:48;;;;;;;2.30;2.10;;;17.70;99.90;;;;;;4981001;28;20446;-77
2023/08/09 01:12:52;;;;;;;8.53;2.40;;;17.70;99.90;;;;;;4982202;28;20476;-77
2023/08/09 01:15:33;;;;;;;2.00;1.90;;;17.60;99.90;;;;;;4981300;28;20505;-77
2023/08/09 01:18:08;;;;;;;3.17;2.70;;;17.60;99.90;;;;;;4981305;28;20481;-77
2023/08/09 01:20:39;;;;;;;2.90;2.57;;;17.60;99.90;;;;;;4980821;28;20540;-78
2023/08/09 01:23:21;;;;;;;2.50;2.30;;;17.60;99.90;;;;;;4980077;28;20457;-77
2023/08/09 01:25:59;;;;;;;3.10;2.43;;;17.50;99.90;;;;;;4983742;28;21023;-76
2023/08/09 01:28:35;;;;;;;2.50;2.40;;;17.50;99.90;;;;;;4984000;28;20444;-76
2023/08/09 01:31:06;;;;;;;2.33;1.90;;;17.50;99.90;;;;;;4981274;28;20465;-77
2023/08/09 01:33:57;;;;;;;2.90;2.50;;;17.50;99.90;;;;;;4978525;28;20560;-77
2023/08/09 01:37:10;;;;;;;2.93;2.53;;;17.50;99.90;;;;;;4980652;28;20691;-77
2023/08/09 01:43:10;;;;;;;2.07;1.97;;;17.40;99.90;;;;;;4972394;28;20746;-77
2023/08/09 01:46:02;;;;;;;3.07;2.40;;;17.40;99.90;;;;;;4937291;29;20474;-76
2023/08/09 01:48:44;;;;;;;3.73;2.90;;;17.40;99.90;;;;;;4947861;28;20468;-76
2023/08/09 01:51:19;;;;;;;2.50;2.40;;;17.30;99.90;;;;;;4977860;28;20430;-77
2023/08/09 01:53:52;;;;;;;2.03;1.93;;;17.30;99.90;;;;;;4977176;28;20418;-78
2023/08/09 01:56:26;;;;;;;3.37;3.07;;;17.30;99.90;;;;;;4977141;28;21030;-77
2023/08/09 01:58:54;;;;;;;3.00;2.10;;;17.20;99.90;;;;;;4975271;28;20489;-77
2023/08/09 02:01:31;;;;;;;2.70;2.50;;;17.20;99.90;;;;;;4975259;28;20462;-77
2023/08/09 02:04:04;;;;;;;2.50;2.30;;;17.10;99.90;;;;;;4975127;28;20453;-78
2023/08/09 02:06:34;;;;;;;4.37;2.40;;;17.10;99.90;;;;;;4975737;28;20477;-77
2023/08/09 02:09:24;;;;;;;3.03;2.53;;;17.10;99.90;;;;;;4977051;28;20449;-77
2023/08/09 02:15:11;;;;;;;2.57;2.37;;;17.10;99.90;;;;;;4977510;28;20433;-77
2023/08/09 02:20:45;;;;;;;2.97;2.70;;;17.00;99.90;;;;;;4981067;28;20585;-77
2023/08/09 02:23:53;;;;;;;2.87;2.57;;;17.00;99.90;;;;;;4981882;28;20812;-78
2023/08/09 02:26:35;;;;;;;7.77;2.57;;;17.10;99.90;;;;;;4984299;28;20548;-77
2023/08/09 02:29:17;;;;;;;2.00;1.80;;;17.10;99.90;;;;;;4986189;28;20447;-77
2023/08/09 02:31:53;;;;;;;2.67;2.50;;;17.00;99.90;;;;;;4985144;28;20862;-76
2023/08/09 02:34:30;;;;;;;2.63;2.43;;;17.00;99.90;;;;;;4985882;28;20449;-77
2023/08/09 02:36:58;;;;;;;3.00;2.30;;;17.00;99.90;;;;;;4984157;28;20532;-76
2023/08/09 02:39:31;;;;;;;2.40;2.20;;;17.00;99.90;;;;;;4984030;28;21009;-79
2023/08/09 02:42:02;;;;;;;2.50;2.33;;;17.00;99.90;;;;;;4984634;28;20868;-77
2023/08/09 02:44:39;;;;;;;2.47;2.27;;;17.00;99.90;;;;;;4985106;28;21001;-77
2023/08/09 02:47:12;;;;;;;3.00;2.37;;;17.00;99.90;;;;;;4983014;28;20449;-77
2023/08/09 02:49:49;;;;;;;2.30;2.20;;;17.00;99.90;;;;;;4980147;28;21012;-76
2023/08/09 02:52:25;;;;;;;2.37;2.23;;;16.90;99.90;;;;;;4976833;28;20465;-77
2023/08/09 02:58:06;;;;;;;3.20;2.93;;;16.90;99.90;;;;;;4950176;28;20493;-77
2023/08/09 03:00:40;;;;;;;2.13;2.03;;;16.50;99.90;;;;;;4977407;28;20480;-76
2023/08/09 03:03:26;;;;;;;2.53;2.33;;;16.90;99.90;;;;;;4978004;28;20456;-77
2023/08/09 03:06:06;;;;;;;3.33;2.00;;;17.00;99.90;;;;;;4977240;28;20555;-77
2023/08/09 03:08:57;;;;;;;3.50;2.77;;;16.90;99.90;;;;;;4977842;28;20973;-76
2023/08/09 03:11:37;;;;;;;7.00;2.93;;;16.90;99.90;;;;;;4978686;28;20477;-77
2023/08/09 03:14:09;;;;;;;2.40;2.30;;;16.90;99.90;;;;;;4977664;28;20434;-77
2023/08/09 03:16:45;;;;;;;2.53;2.33;;;16.90;99.90;;;;;;4977327;28;20481;-77
2023/08/09 03:19:24;;;;;;;2.27;2.03;;;16.90;99.90;;;;;;4975841;28;21198;-77
2023/08/09 03:25:05;;;;;;;2.50;2.40;;;16.80;99.90;;;;;;4970316;28;20987;-77
2023/08/09 03:28:02;;;;;;;2.50;2.30;;;16.80;99.90;;;;;;4984034;28;20456;-78
2023/08/09 03:30:55;;;;;;;2.70;2.50;;;16.80;99.90;;;;;;4982369;28;20519;-77
2023/08/09 03:36:51;;;;;;;;;;;;;;;;;;;;;
2023/08/09 03:42:22;;;;;;;2.60;2.50;;;16.90;99.90;;;;;;4976711;28;20445;-78
2023/08/09 03:47:57;;;;;;;2.93;2.60;;;16.80;99.90;;;;;;4984351;28;20477;-78
2023/08/09 03:50:28;;;;;;;2.70;2.50;;;16.80;99.90;;;;;;4987553;28;20448;-77
2023/08/09 03:53:05;;;;;;;2.60;2.40;;;16.80;99.90;;;;;;4994291;28;20430;-78
2023/08/09 03:55:42;;;;;;;2.90;2.67;;;16.80;99.90;;;;;;4999795;28;20520;-77
2023/08/09 03:58:18;;;;;;;2.27;2.17;;;16.80;99.90;;;;;;5005054;28;20460;-77
2023/08/09 04:01:08;;;;;;;2.40;2.30;;;16.80;99.90;;;;;;4992824;28;20466;-76
2023/08/09 04:03:41;;;;;;;3.03;2.27;;;16.90;99.90;;;;;;4987764;28;20508;-77
2023/08/09 04:06:46;;;;;;;4.00;2.47;;;16.80;99.90;;;;;;4982804;28;20469;-76
2023/08/09 04:09:39;;;;;;;2.70;2.50;;;16.80;99.90;;;;;;4911129;28;20457;-77
2023/08/09 04:22:30;;;;;;;;;;;;;;;;;;;;;
2023/08/09 04:25:19;;;;;;;2.50;2.40;;;16.90;99.90;;;;;;4985605;28;20464;-77
2023/08/09 04:28:08;;;;;;;3.07;2.80;;;16.90;99.90;;;;;;4983303;28;20461;-77
2023/08/09 04:31:03;;;;;;;2.60;2.40;;;16.90;99.90;;;;;;4982385;28;20453;-78
2023/08/09 04:33:37;;;;;;;2.47;2.37;;;16.90;99.90;;;;;;4977124;28;20449;-77
2023/08/09 04:36:27;;;;;;;2.27;2.10;;;16.90;99.90;;;;;;4975260;28;20527;-77
2023/08/09 04:39:16;;;;;;;3.87;2.40;;;16.90;99.90;;;;;;4977114;28;20492;-77
2023/08/09 04:42:04;;;;;;;2.33;2.13;;;16.90;99.90;;;;;;4977179;28;20461;-76
2023/08/09 04:44:54;;;;;;;3.20;3.00;;;16.90;99.90;;;;;;4976636;28;21146;-76
2023/08/09 04:47:42;;;;;;;3.00;2.80;;;16.90;99.90;;;;;;4976953;28;20930;-77
2023/08/09 04:50:34;;;;;;;3.37;2.03;;;16.90;99.90;;;;;;4975909;28;20461;-77
2023/08/09 04:53:05;;;;;;;2.50;2.30;;;16.90;99.90;;;;;;4977505;28;20458;-76
2023/08/09 04:56:13;;;;;;;2.43;2.33;;;16.60;99.90;;;;;;4982114;28;20497;-78
2023/08/09 04:58:42;;;;;;;2.63;2.43;;;17.10;99.90;;;;;;4987326;28;20531;-78
2023/08/09 05:01:29;;;;;;;3.80;2.40;;;17.10;99.90;;;;;;4988036;28;20795;-77
2023/08/09 05:04:22;;;;;;;3.00;2.10;;;17.10;99.90;;;;;;4990908;28;20456;-77
2023/08/09 05:07:10;;;;;;;2.20;2.00;;;17.10;99.90;;;;;;4992106;28;20476;-77
2023/08/09 05:09:47;;;;;;;3.20;2.73;;;17.10;99.90;;;;;;4992824;28;20448;-77
2023/08/09 05:12:46;;;;;;;2.23;2.13;;;17.10;99.90;;;;;;4987785;28;20988;-78
2023/08/09 05:15:15;;;;;;;2.33;2.23;;;17.10;99.90;;;;;;4984700;28;20537;-77
2023/08/09 05:17:48;;;;;;;2.53;2.33;;;17.20;99.90;;;;;;4980109;28;20442;-77
2023/08/09 05:20:25;;;;;;;2.90;2.47;;;17.20;99.90;;;;;;4986794;28;20485;-78
2023/08/09 05:23:23;;;;;;;2.40;2.30;;;17.20;99.90;;;;;;4988431;28;20456;-76
2023/08/09 05:26:08;;;;;;;3.33;2.30;;;17.20;99.90;;;;;;4986012;28;20500;-77
2023/08/09 05:28:45;;;;;;;2.60;2.40;;;17.30;99.90;;;;;;4990323;28;20481;-78
2023/08/09 05:31:29;;;;;;;2.70;2.30;;;17.30;99.90;;;;;;4989723;28;20465;-78
2023/08/09 05:34:04;;;;;;;2.20;2.07;;;17.30;99.90;;;;;;4991925;28;20803;-78
2023/08/09 05:36:41;;;;;;;3.40;2.60;;;17.30;99.90;;;;;;4991599;28;20497;-78
2023/08/09 05:39:12;;;;;;;4.00;2.60;;;17.30;99.90;;;;;;4990902;28;20480;-76
2023/08/09 05:41:54;;;;;;;2.00;1.67;;;17.40;99.90;;;;;;4989223;28;20463;-77
2023/08/09 05:44:41;;;;;;;2.50;2.20;;;17.40;99.90;;;;;;4990658;28;20517;-77
2023/08/09 05:50:13;;;;;;;4.30;2.50;;;17.40;99.90;;;;;;4970470;28;20471;-77
2023/08/09 05:52:47;;;;;;;2.47;2.03;;;17.40;99.90;;;;;;4976166;28;20544;-77
2023/08/09 05:55:24;;;;;;;7.10;2.40;;;17.40;99.90;;;;;;4976436;28;20508;-77
2023/08/09 05:57:57;;;;;;;2.80;2.57;;;17.50;99.90;;;;;;4975320;28;20874;-76
2023/08/09 06:00:28;;;;;;;3.97;2.50;;;17.50;99.90;;;;;;4975628;28;20484;-76
2023/08/09 06:03:00;;;;;;;2.70;2.13;;;17.50;99.90;;;;;;4975013;28;20446;-77
2023/08/09 06:05:31;;;;;;;2.70;2.53;;;17.50;99.90;;;;;;4976324;28;20465;-77
2023/08/09 06:08:19;;;;;;;3.40;3.10;;;17.60;99.90;;;;;;4975427;28;20564;-77
2023/08/09 06:10:57;;;;;;;2.30;2.20;;;17.60;99.90;;;;;;4975711;28;20839;-77
2023/08/09 06:13:31;;;;;;;3.00;2.43;;;17.60;99.90;;;;;;4975807;28;20795;-78
2023/08/09 06:16:02;;;;;;;6.93;2.47;;;17.70;99.90;;;;;;4975204;28;20998;-78
2023/08/09 06:18:37;;;;;;;3.60;2.13;;;17.70;99.90;;;;;;4976352;28;21005;-78
2023/08/09 06:21:08;;;;;;;1.87;1.77;;;17.80;99.90;;;;;;4975191;28;21012;-79
2023/08/09 06:23:43;;;;;;;2.53;2.37;;;17.90;99.90;;;;;;4974809;28;20453;-78
2023/08/09 06:26:16;;;;;;;2.40;2.27;;;17.90;99.90;;;;;;4975166;28;20479;-77
2023/08/09 06:28:44;;;;;;;3.97;3.63;;;18.00;99.90;;;;;;4974511;28;20468;-79
2023/08/09 06:31:17;;;;;;;2.20;1.93;;;18.00;99.90;;;;;;4975415;28;20434;-76
2023/08/09 06:33:53;;;;;;;2.20;2.00;;;18.00;99.90;;;;;;4974363;28;20453;-77
2023/08/09 06:36:24;;;;;;;1.83;1.73;;;18.10;99.90;;;;;;4976188;28;20477;-78
2023/08/09 06:38:57;;;;;;;2.13;2.03;;;18.10;99.90;;;;;;4975130;28;20524;-78
2023/08/09 06:41:27;;;;;;;2.17;2.07;;;18.20;99.90;;;;;;4975231;28;20468;-77
2023/08/09 06:43:58;;;;;;;2.30;2.10;;;18.20;99.90;;;;;;4974667;28;20457;-76
2023/08/09 06:46:36;;;;;;;2.77;2.57;;;18.30;99.90;;;;;;4974560;28;20527;-77
2023/08/09 06:49:03;;;;;;;7.07;2.20;;;18.40;99.90;;;;;;4974439;28;20453;-77
2023/08/09 06:51:31;;;;;;;2.67;1.90;;;18.50;99.90;;;;;;4974408;28;20447;-76
2023/08/09 06:54:03;;;;;;;3.33;2.40;;;18.50;99.90;;;;;;4974678;28;20457;-76
2023/08/09 06:56:35;;;;;;;1.77;1.67;;;18.60;99.90;;;;;;4974177;28;20505;-77
2023/08/09 06:59:06;;;;;;;4.23;2.23;;;18.60;99.90;;;;;;4974801;28;20832;-78
2023/08/09 07:01:39;;;;;;;5.07;2.17;;;18.80;99.90;;;;;;4976154;28;20457;-79
2023/08/09 07:04:08;;;;;;;2.37;2.17;;;18.80;99.90;;;;;;4974392;28;20461;-77
2023/08/09 07:06:40;;;;;;;2.80;2.27;;;18.90;99.90;;;;;;4976416;28;20458;-79
2023/08/09 07:09:11;;;;;;;2.73;2.53;;;19.20;99.90;;;;;;4975659;28;20699;-79
2023/08/09 07:11:43;;;;;;;1.87;1.77;;;19.00;99.90;;;;;;4975715;28;20457;-78
2023/08/09 07:14:11;;;;;;;1.97;1.87;;;18.90;99.90;;;;;;4974246;28;20438;-78
2023/08/09 07:16:39;;;;;;;2.30;2.10;;;18.90;99.90;;;;;;4974178;28;20488;-77
2023/08/09 07:19:08;;;;;;;3.53;2.70;;;18.90;99.90;;;;;;4973233;28;20481;-80
2023/08/09 07:21:39;;;;;;;3.20;2.50;;;18.90;99.90;;;;;;4973686;28;20472;-78
2023/08/09 07:24:07;;;;;;;3.97;2.17;;;19.10;99.90;;;;;;4974118;28;20529;-78
2023/08/09 07:26:36;;;;;;;1.80;1.70;;;19.10;99.90;;;;;;4975500;28;20453;-77
2023/08/09 07:29:05;;;;;;;2.10;2.00;;;19.10;99.90;;;;;;4975910;28;20449;-77
2023/08/09 07:31:33;;;;;;;1.83;1.70;;;19.20;99.90;;;;;;4976550;28;20573;-78
2023/08/09 07:34:03;;;;;;;2.73;2.53;;;19.20;99.90;;;;;;4976283;28;20471;-79
2023/08/09 07:36:33;;;;;;;1.90;1.80;;;19.30;99.90;;;;;;4975877;28;20473;-77
2023/08/09 07:39:03;;;;;;;1.97;1.87;;;19.30;99.90;;;;;;4975292;28;20941;-78
2023/08/09 07:41:35;;;;;;;1.93;1.83;;;19.40;99.90;;;;;;4975208;28;20964;-80
2023/08/09 07:44:14;;;;;;;1.67;1.57;;;19.40;99.90;;;;;;4974822;28;20889;-77
2023/08/09 07:46:51;;;;;;;2.07;1.97;;;19.40;99.90;;;;;;4976567;28;20989;-79
2023/08/09 07:49:21;;;;;;;2.00;1.90;;;19.40;99.90;;;;;;4978224;28;20448;-78
2023/08/09 07:51:51;;;;;;;2.00;1.80;;;19.50;99.90;;;;;;4979248;28;20441;-78
2023/08/09 07:54:19;;;;;;;2.27;1.90;;;19.50;99.90;;;;;;4977219;28;20461;-79
2023/08/09 07:56:46;;;;;;;2.00;1.90;;;19.60;99.90;;;;;;4984566;28;20837;-77
2023/08/09 07:59:15;;;;;;;3.63;2.40;;;19.70;99.90;;;;;;4983968;28;20477;-79
2023/08/09 08:01:44;;;;;;;1.80;1.70;;;19.80;99.90;;;;;;4980151;28;20434;-77
2023/08/09 08:04:12;;;;;;;2.33;2.13;;;19.80;99.90;;;;;;4975643;28;20649;-78
2023/08/09 08:06:39;;;;;;;3.93;2.40;;;19.70;99.90;;;;;;4980348;28;20454;-77
2023/08/09 08:09:12;;;;;;;3.57;2.00;;;19.80;99.90;;;;;;4981980;28;20452;-77
2023/08/09 08:11:39;;;;;;;2.10;2.00;;;19.80;99.90;;;;;;4983000;28;20460;-77
2023/08/09 08:14:07;;;;;;;3.10;1.60;;;19.90;99.90;;;;;;4983442;28;20473;-77
2023/08/09 08:16:36;;;;;;;2.27;1.90;;;20.00;99.90;;;;;;4983415;28;20449;-80
2023/08/09 08:19:04;;;;;;;2.10;2.00;;;20.00;99.90;;;;;;4981215;28;20456;-79
2023/08/09 08:21:32;;;;;;;6.93;2.00;;;19.90;99.90;;;;;;4979656;28;20503;-78
2023/08/09 08:24:00;;;;;;;2.63;1.67;;;19.90;99.90;;;;;;4979153;28;20929;-77
2023/08/09 08:26:28;;;;;;;2.03;1.93;;;19.90;99.90;;;;;;4978255;28;20572;-78
2023/08/09 08:28:57;;;;;;;3.27;1.90;;;19.90;99.90;;;;;;4978050;28;20449;-78
2023/08/09 08:31:28;;;;;;;7.50;2.63;;;19.90;99.90;;;;;;4979576;28;20442;-78
2023/08/09 08:33:57;;;;;;;2.40;2.00;;;19.90;99.90;;;;;;4981671;28;20815;-77
2023/08/09 08:36:24;;;;;;;2.73;2.00;;;19.90;99.90;;;;;;4982578;28;20477;-78
2023/08/09 08:38:52;;;;;;;2.37;2.17;;;19.60;99.90;;;;;;4982533;28;20844;-77
2023/08/09 08:41:20;;;;;;;2.73;2.20;;;19.80;99.90;;;;;;4982939;28;20491;-78
2023/08/09 08:43:49;;;;;;;2.40;2.20;;;19.70;99.90;;;;;;4980216;28;20511;-77
2023/08/09 08:46:20;;;;;;;3.67;2.20;;;19.80;99.90;;;;;;4978855;28;20472;-79
2023/08/09 08:48:52;;;;;;;2.70;1.57;;;19.80;99.90;;;;;;4977874;28;20437;-79
2023/08/09 08:51:28;;;;;;;2.70;1.87;;;19.80;99.90;;;;;;4981714;28;20818;-78
2023/08/09 08:53:57;;;;;;;2.43;2.17;;;19.80;99.90;;;;;;4978215;28;20472;-79
2023/08/09 08:56:28;;;;;;;4.07;1.90;;;19.90;99.90;;;;;;4976586;28;20485;-78
2023/08/09 08:59:00;;;;;;;2.20;2.00;;;19.90;99.90;;;;;;4976350;28;20457;-77
2023/08/09 09:01:32;;;;;;;3.17;1.90;;;19.80;99.90;;;;;;4977403;28;20477;-77
2023/08/09 09:04:04;;;;;;;2.80;2.33;;;19.80;99.90;;;;;;4981006;28;20509;-77
2023/08/09 09:06:34;;;;;;;3.10;2.50;;;19.50;99.90;;;;;;4986256;28;20833;-77
2023/08/09 09:09:13;;;;;;;2.10;1.90;;;19.80;99.90;;;;;;4986279;28;20468;-80
2023/08/09 09:11:43;;;;;;;2.53;2.43;;;19.80;99.90;;;;;;4983370;28;20449;-77
2023/08/09 09:14:12;;;;;;;3.27;2.20;;;19.90;99.90;;;;;;4986071;28;20984;-77
2023/08/09 09:16:40;;;;;;;2.27;2.07;;;19.60;99.90;;;;;;4985344;28;20454;-77
2023/08/09 09:19:10;;;;;;;2.40;2.20;;;20.00;99.90;;;;;;4977813;28;20458;-77
2023/08/09 09:21:45;;;;;;;2.43;1.90;;;20.10;99.90;;;;;;4976041;28;20480;-77
2023/08/09 09:24:15;;;;;;;2.97;2.30;;;20.00;99.90;;;;;;4976020;28;20441;-77
2023/08/09 09:26:55;;;;;;;2.57;2.37;;;20.10;99.90;;;;;;4977475;28;20482;-77
2023/08/09 09:29:31;;;;;;;2.93;2.20;;;20.20;99.90;;;;;;4980789;28;20972;-81
2023/08/09 09:32:00;;;;;;;4.83;2.73;;;20.30;99.90;;;;;;4982852;28;20452;-78
2023/08/09 09:34:34;;;;;;;3.03;2.37;;;20.30;99.90;;;;;;4982447;28;20802;-77
2023/08/09 09:37:03;;;;;;;2.47;2.27;;;20.40;99.90;;;;;;4981145;28;20440;-79
2023/08/09 09:39:34;;;;;;;5.83;2.20;;;20.30;99.90;;;;;;4980054;28;20453;-77
2023/08/09 09:42:02;;;;;;;4.53;2.30;;;20.20;99.90;;;;;;4979250;28;20837;-79
2023/08/09 09:44:29;;;;;;;2.97;2.23;;;20.30;99.90;;;;;;4981390;28;20445;-78
2023/08/09 09:46:57;;;;;;;3.90;2.60;;;20.50;99.90;;;;;;4979252;28;20477;-78
2023/08/09 09:49:28;;;;;;;2.30;2.10;;;20.30;99.90;;;;;;4981455;28;20453;-80
2023/08/09 09:51:56;;;;;;;4.30;2.47;;;20.30;99.90;;;;;;4977708;28;20450;-77
2023/08/09 09:54:27;;;;;;;4.00;2.33;;;20.30;99.90;;;;;;4985723;28;20512;-79
2023/08/09 09:56:54;;;;;;;2.80;2.50;;;20.30;99.90;;;;;;4985050;28;20545;-77
2023/08/09 09:59:27;;;;;;;5.57;2.37;;;20.30;99.90;;;;;;4978991;28;20948;-80
2023/08/09 10:01:55;;;;;;;2.90;2.13;;;20.50;99.90;;;;;;4981891;28;21051;-78
2023/08/09 10:04:24;;;;;;;2.40;2.20;;;20.30;99.90;;;;;;4982921;28;20803;-78
2023/08/09 10:06:52;;;;;;;6.00;2.10;;;20.50;99.90;;;;;;4982645;28;20851;-79
2023/08/09 10:09:20;;;;;;;2.40;2.20;;;20.50;99.90;;;;;;4978271;28;20457;-77
2023/08/09 10:11:54;;;;;;;2.20;2.10;;;20.50;99.90;;;;;;4977440;28;20453;-80
2023/08/09 10:14:26;;;;;;;2.53;2.00;;;20.50;99.90;;;;;;4977058;28;20515;-78
2023/08/09 10:16:57;;;;;;;2.37;2.07;;;20.50;99.90;;;;;;4978768;28;20492;-78
2023/08/09 10:19:26;;;;;;;2.10;2.00;;;20.40;99.90;;;;;;4980493;28;20453;-78
2023/08/09 10:21:54;;;;;;;2.47;2.23;;;20.40;99.90;;;;;;4980983;28;20476;-77
2023/08/09 10:24:22;;;;;;;2.77;2.00;;;20.40;99.90;;;;;;4984685;28;20524;-77
2023/08/09 10:26:54;;;;;;;2.40;2.20;;;20.50;99.90;;;;;;4985187;28;20485;-77
2023/08/09 10:29:24;;;;;;;2.23;1.90;;;20.40;99.90;;;;;;4984130;28;20546;-77
2023/08/09 10:32:03;;;;;;;2.87;2.57;;;20.40;99.90;;;;;;4982261;28;20445;-78
2023/08/09 10:34:35;;;;;;;2.00;1.90;;;20.20;99.90;;;;;;4984878;28;20441;-77
2023/08/09 10:37:03;;;;;;;3.53;2.20;;;20.10;99.90;;;;;;4984533;28;20434;-77
2023/08/09 10:39:32;;;;;;;2.70;2.47;;;20.00;99.90;;;;;;4982495;28;20441;-79
2023/08/09 10:42:04;;;;;;;2.27;2.13;;;20.10;99.90;;;;;;4980395;28;20505;-77
2023/08/09 10:44:48;;;;;;;2.87;2.00;;;20.10;99.90;;;;;;4978251;28;20433;-78
2023/08/09 10:47:23;;;;;;;3.33;2.17;;;20.30;99.90;;;;;;4979686;28;20480;-77
2023/08/09 10:50:10;;;;;;;5.90;2.77;;;20.80;99.90;;;;;;4983701;28;20532;-80
2023/08/09 10:52:41;;;;;;;2.40;2.10;;;20.60;99.90;;;;;;4976605;28;21041;-79
2023/08/09 10:55:29;;;;;;;4.37;2.20;;;20.70;99.90;;;;;;4981773;28;20837;-77
2023/08/09 10:58:02;;;;;;;2.40;2.20;;;20.80;99.90;;;;;;4981583;28;20877;-78
2023/08/09 11:00:39;;;;;;;2.30;2.10;;;20.80;99.90;;;;;;4981298;28;20564;-78
2023/08/09 11:03:07;;;;;;;2.20;2.00;;;20.70;99.90;;;;;;4979883;28;20441;-77
2023/08/09 11:05:35;;;;;;;2.80;2.20;;;20.80;99.90;;;;;;4980207;28;20476;-77
2023/08/09 11:08:11;;;;;;;3.07;1.73;;;20.70;99.90;;;;;;4981991;28;20442;-80
2023/08/09 11:10:43;;;;;;;3.40;2.77;;;20.70;99.90;;;;;;4983452;28;20433;-78
2023/08/09 11:13:14;;;;;;;4.23;2.70;;;20.80;99.90;;;;;;4981229;28;20433;-78
2023/08/09 11:15:44;;;;;;;2.87;2.37;;;20.80;99.90;;;;;;4981050;28;20477;-78
2023/08/09 11:18:12;;;;;;;6.17;2.40;;;20.80;99.90;;;;;;4979784;28;20449;-77
2023/08/09 11:20:39;;;;;;;3.40;2.10;;;20.90;99.90;;;;;;4980242;28;20493;-78
2023/08/09 11:23:06;;;;;;;5.70;2.40;;;20.80;99.90;;;;;;4982557;28;20810;-81
2023/08/09 11:25:35;;;;;;;5.63;2.40;;;20.90;99.90;;;;;;4980277;28;20465;-78
2023/08/09 11:28:05;;;;;;;2.53;2.33;;;21.00;99.90;;;;;;4983648;28;20429;-78
2023/08/09 11:30:35;;;;;;;2.80;2.53;;;21.00;99.90;;;;;;4980977;28;20444;-78
2023/08/09 11:33:08;;;;;;;3.90;2.50;;;21.10;99.90;;;;;;4981395;28;20958;-78
2023/08/09 11:35:39;;;;;;;2.20;2.10;;;21.30;99.90;;;;;;4983705;28;20896;-78
2023/08/09 11:38:09;;;;;;;2.63;2.10;;;21.60;99.90;;;;;;4983323;28;20469;-81
2023/08/09 11:40:42;;;;;;;2.40;2.20;;;21.60;99.90;;;;;;4981924;28;20477;-81
2023/08/09 11:43:18;;;;;;;3.50;2.70;;;21.50;99.90;;;;;;4983019;28;20862;-78
2023/08/09 11:45:53;;;;;;;4.57;2.40;;;21.60;99.90;;;;;;4983327;28;20476;-79
2023/08/09 11:48:30;;;;;;;2.63;1.77;;;21.60;99.90;;;;;;4984212;28;21118;-79
2023/08/09 11:51:07;;;;;;;2.70;2.23;;;21.60;99.90;;;;;;4985268;28;20875;-79
2023/08/09 11:53:36;;;;;;;3.40;2.40;;;21.80;99.90;;;;;;4983059;28;20449;-76
2023/08/09 11:56:07;;;;;;;2.67;1.97;;;21.90;99.90;;;;;;4982748;28;20513;-80
2023/08/09 11:58:36;;;;;;;9.53;2.23;;;21.60;99.90;;;;;;4981835;28;20524;-79
2023/08/09 12:01:20;;;;;;;2.47;2.13;;;21.60;99.90;;;;;;4980277;28;20469;-78
2023/08/09 12:03:52;;;;;;;4.27;2.30;;;21.60;99.90;;;;;;4979524;28;20491;-78
2023/08/09 12:06:43;;;;;;;2.30;2.10;;;21.60;99.90;;;;;;4984738;28;20547;-78
2023/08/09 12:09:40;;;;;;;2.33;2.13;;;21.70;99.90;;;;;;4990173;28;20457;-78
2023/08/09 12:12:09;;;;;;;2.50;1.80;;;21.90;99.90;;;;;;4977044;28;20449;-81
2023/08/09 12:14:51;;;;;;;2.70;1.93;;;22.30;99.90;;;;;;4990305;28;20449;-79
2023/08/09 12:17:23;;;;;;;3.53;2.50;;;22.30;99.90;;;;;;4990316;28;20460;-77
2023/08/09 12:19:56;;;;;;;5.43;2.50;;;22.40;99.90;;;;;;4990563;28;20445;-78
2023/08/09 12:22:39;;;;;;;2.53;2.33;;;22.20;99.90;;;;;;4989298;28;20465;-79
2023/08/09 12:25:09;;;;;;;2.93;2.00;;;22.00;99.90;;;;;;4988030;28;20472;-79
2023/08/09 12:27:40;;;;;;;2.60;2.40;;;21.90;99.90;;;;;;4990174;28;20548;-79
2023/08/09 12:30:16;;;;;;;2.43;2.23;;;21.90;99.90;;;;;;4984635;28;21054;-78
2023/08/09 12:32:49;;;;;;;3.60;2.27;;;21.80;99.90;;;;;;4988863;28;20429;-78
2023/08/09 12:35:20;;;;;;;2.80;2.60;;;21.50;99.90;;;;;;4991126;28;20502;-78
2023/08/09 12:37:51;;;;;;;3.50;2.60;;;21.80;99.90;;;;;;4990074;28;20426;-78
2023/08/09 12:40:19;;;;;;;2.47;2.00;;;22.00;99.90;;;;;;4990082;28;20437;-79
2023/08/09 12:43:04;;;;;;;;;;;;;;;;;;;;;
2023/08/09 12:45:35;;;;;;;2.13;1.80;;;22.00;99.90;;;;;;4988451;28;20437;-77
2023/08/09 12:48:11;;;;;;;5.13;2.37;;;22.30;99.90;;;;;;4987102;28;20456;-78
2023/08/09 12:50:43;;;;;;;2.40;1.80;;;22.20;99.90;;;;;;4984594;28;20453;-78
2023/08/09 12:53:19;;;;;;;3.30;2.43;;;22.20;99.90;;;;;;4985099;28;20449;-77
2023/08/09 12:55:50;;;;;;;2.80;2.00;;;22.30;99.90;;;;;;4989411;28;20461;-78
2023/08/09 12:58:26;;;;;;;3.00;2.50;;;22.50;99.90;;;;;;4990861;28;20840;-79
2023/08/09 13:00:54;;;;;;;2.40;2.10;;;22.60;99.90;;;;;;4984194;28;20812;-78
2023/08/09 13:03:30;;;;;;;4.50;2.27;;;22.20;99.90;;;;;;4987331;28;20436;-78
2023/08/09 13:06:27;;;;;;;2.30;2.10;;;22.30;99.90;;;;;;4988828;28;20475;-80
2023/08/09 13:09:08;;;;;;;2.57;2.37;;;22.40;99.90;;;;;;4988494;28;20450;-81
2023/08/09 13:11:54;;;;;;;2.60;2.43;;;22.60;99.90;;;;;;4984140;28;20500;-79
2023/08/09 13:14:25;;;;;;;2.37;2.07;;;22.90;99.90;;;;;;4987655;28;20509;-78
2023/08/09 13:17:23;;;;;;;4.20;2.13;;;22.90;99.90;;;;;;4982486;28;20460;-78
2023/08/09 13:23:30;;;;;;;5.10;2.33;;;22.40;99.90;;;;;;4983566;28;21165;-79
2023/08/09 13:26:01;;;;;;;2.73;2.23;;;22.30;99.90;;;;;;4986584;28;20481;-79
2023/08/09 13:28:37;;;;;;;4.43;2.30;;;22.40;99.90;;;;;;4984608;28;20476;-81
2023/08/09 13:48:12;;;;;;;2.73;2.33;;;22.90;99.90;;;;;;4851970;29;20526;-79
2023/08/09 13:50:40;;;;;;;2.63;2.40;;;23.20;99.90;;;;;;4930513;29;20463;-79
2023/08/09 13:53:13;;;;;;;2.40;2.20;;;23.30;99.90;;;;;;4931364;29;20475;-78
2023/08/09 13:55:49;;;;;;;1.80;1.70;;;23.10;99.90;;;;;;4972427;28;20473;-79
2023/08/09 13:58:19;;;;;;;2.10;2.00;;;23.30;99.90;;;;;;4984023;28;20472;-78
2023/08/09 14:00:55;;;;;;;1.90;1.80;;;23.40;99.90;;;;;;4985980;28;20469;-79
2023/08/09 14:03:48;;;;;;;5.67;2.10;;;23.40;99.90;;;;;;4986960;28;20444;-79
2023/08/09 14:06:26;;;;;;;2.60;2.37;;;23.20;99.90;;;;;;4971822;28;20481;-79
2023/08/09 14:11:56;;;;;;;2.67;1.97;;;23.20;99.90;;;;;;4981133;28;20448;-78
2023/08/09 14:14:44;;;;;;;2.43;2.23;;;22.90;99.90;;;;;;4978206;28;20434;-78
2023/08/09 14:17:18;;;;;;;2.00;1.90;;;22.90;99.90;;;;;;4983364;28;20449;-79
2023/08/09 14:20:16;;;;;;;4.27;2.77;;;22.80;99.90;;;;;;4977957;28;20473;-78
2023/08/09 14:23:02;;;;;;;2.20;2.10;;;22.80;99.90;;;;;;4978219;28;20473;-78
2023/08/09 14:26:00;;;;;;;2.40;2.20;;;23.00;99.90;;;;;;4979441;28;20473;-77
2023/08/09 14:28:37;;;;;;;1.90;1.80;;;22.90;99.90;;;;;;4976423;28;20537;-79
2023/08/09 14:31:25;;;;;;;6.17;2.33;;;22.90;99.90;;;;;;4965118;28;20480;-77
2023/08/09 14:34:01;;;;;;;2.17;2.07;;;22.80;99.90;;;;;;4979905;28;20445;-79
2023/08/09 14:36:42;;;;;;;2.50;1.90;;;23.00;99.90;;;;;;4979664;28;20496;-78
2023/08/09 14:39:12;;;;;;;2.27;2.07;;;22.90;99.90;;;;;;4962438;28;20556;-81
2023/08/09 14:55:40;;;;;;;1.80;1.70;;;22.80;99.90;;;;;;4805035;29;20470;-79
2023/08/09 14:58:08;;;;;;;1.60;1.50;;;22.90;99.90;;;;;;4860144;29;20887;-79
2023/08/09 15:00:37;;;;;;;2.40;2.20;;;23.00;99.90;;;;;;4923757;29;20459;-78
2023/08/09 15:03:18;;;;;;;2.30;2.00;;;22.90;99.90;;;;;;4956190;28;20473;-78